createdAt,value
2023-01-30T00:01:34.800Z,12.97
2023-01-30T00:04:04.054Z,14.70
2023-01-30T00:06:31.664Z,14.80
2023-01-30T00:09:02.373Z,14.97
2023-01-30T00:11:32.001Z,14.70
2023-01-30T00:14:00.100Z,13.87
2023-01-30T00:16:27.771Z,15.33
2023-01-30T00:18:55.400Z,15.47
2023-01-30T00:21:24.398Z,14.30
2023-01-30T00:23:51.978Z,12.63
2023-01-30T00:26:19.917Z,12.23
2023-01-30T00:28:47.624Z,13.17
2023-01-30T00:31:15.226Z,13.87
2023-01-30T00:33:42.803Z,17.20
2023-01-30T00:36:11.540Z,13.50
2023-01-30T00:38:40.767Z,15.57
2023-01-30T00:41:08.471Z,12.10
2023-01-30T00:43:53.901Z,16.30
2023-01-30T00:46:46.643Z,13.53
2023-01-30T00:49:14.274Z,12.77
2023-01-30T00:51:41.858Z,14.80
2023-01-30T00:54:10.799Z,14.37
2023-01-30T00:56:39.172Z,15.27
2023-01-30T00:59:06.717Z,16.00
2023-01-30T01:01:34.581Z,14.60
2023-01-30T01:04:02.180Z,12.20
2023-01-30T01:06:29.857Z,14.00
2023-01-30T01:08:59.852Z,15.47
2023-01-30T01:11:30.081Z,12.77
2023-01-30T01:13:59.355Z,17.27
2023-01-30T01:16:28.722Z,16.63
2023-01-30T01:18:56.693Z,15.67
2023-01-30T01:21:24.921Z,14.17
2023-01-30T01:23:53.867Z,12.97
2023-01-30T01:26:21.784Z,17.93
2023-01-30T01:28:50.939Z,18.90
2023-01-30T01:31:18.614Z,17.03
2023-01-30T01:33:47.629Z,14.00
2023-01-30T01:36:29.248Z,15.70
2023-01-30T01:39:04.430Z,15.60
2023-01-30T01:41:31.283Z,18.93
2023-01-30T01:44:08.330Z,14.33
2023-01-30T01:46:41.438Z,14.47
2023-01-30T01:49:16.258Z,15.83
2023-01-30T01:51:49.807Z,14.10
2023-01-30T01:54:22.414Z,16.20
2023-01-30T01:56:50.745Z,14.53
2023-01-30T01:59:25.605Z,14.43
2023-01-30T02:01:56.891Z,14.40
2023-01-30T02:04:39.859Z,13.30
2023-01-30T02:07:07.823Z,13.87
2023-01-30T02:09:36.084Z,13.40
2023-01-30T02:12:05.417Z,16.43
2023-01-30T02:14:35.065Z,16.03
2023-01-30T02:17:02.610Z,13.50
2023-01-30T02:19:43.801Z,13.50
2023-01-30T02:22:33.756Z,12.10
2023-01-30T02:25:18.784Z,12.83
2023-01-30T02:28:18.866Z,14.90
2023-01-30T02:31:29.392Z,11.10
2023-01-30T02:34:12.498Z,14.53
2023-01-30T02:36:52.000Z,13.30
2023-01-30T02:39:32.557Z,14.57
2023-01-30T02:42:06.391Z,15.30
2023-01-30T02:44:38.602Z,16.67
2023-01-30T02:47:13.429Z,13.80
2023-01-30T02:49:47.575Z,13.43
2023-01-30T02:52:18.376Z,13.13
2023-01-30T02:54:46.161Z,10.97
2023-01-30T02:57:20.262Z,13.47
2023-01-30T02:59:52.681Z,14.63
2023-01-30T03:03:07.322Z,13.93
2023-01-30T03:05:51.500Z,12.87
2023-01-30T03:08:28.450Z,12.70
2023-01-30T03:11:01.745Z,15.10
2023-01-30T03:13:44.781Z,12.70
2023-01-30T03:16:17.342Z,13.63
2023-01-30T03:18:46.469Z,14.03
2023-01-30T03:21:15.678Z,14.30
2023-01-30T03:23:45.654Z,14.43
2023-01-30T03:26:19.141Z,15.17
2023-01-30T03:28:50.964Z,12.30
2023-01-30T03:31:18.858Z,19.00
2023-01-30T03:33:46.656Z,15.53
2023-01-30T03:36:23.165Z,12.20
2023-01-30T03:38:52.693Z,18.07
2023-01-30T03:41:20.375Z,14.80
2023-01-30T03:43:48.044Z,13.17
2023-01-30T03:46:15.678Z,12.93
2023-01-30T03:48:43.343Z,11.73
2023-01-30T03:51:10.919Z,11.87
2023-01-30T03:53:41.407Z,14.53
2023-01-30T03:56:09.104Z,14.67
2023-01-30T03:58:36.771Z,14.70
2023-01-30T04:01:04.582Z,12.50
2023-01-30T04:03:32.310Z,13.90
2023-01-30T04:05:59.942Z,15.60
2023-01-30T04:08:27.678Z,17.10
2023-01-30T04:10:56.544Z,14.63
2023-01-30T04:13:24.272Z,13.40
2023-01-30T04:15:51.842Z,14.03
2023-01-30T04:18:19.413Z,13.17
2023-01-30T04:20:47.046Z,13.70
2023-01-30T04:23:14.675Z,13.97
2023-01-30T04:25:42.326Z,13.93
2023-01-30T04:28:11.276Z,14.70
2023-01-30T04:30:39.262Z,15.63
2023-01-30T04:33:06.857Z,14.17
2023-01-30T04:35:34.448Z,15.87
2023-01-30T04:38:02.305Z,16.03
2023-01-30T04:40:29.969Z,16.70
2023-01-30T04:42:57.934Z,16.67
2023-01-30T04:45:30.504Z,17.87
2023-01-30T04:47:58.097Z,15.20
2023-01-30T04:50:25.833Z,17.30
2023-01-30T04:52:56.292Z,22.20
2023-01-30T04:55:24.050Z,15.67
2023-01-30T04:57:51.759Z,16.00
2023-01-30T05:00:20.076Z,16.63
2023-01-30T05:02:49.697Z,16.90
2023-01-30T05:05:17.879Z,14.47
2023-01-30T05:07:45.742Z,16.80
2023-01-30T05:10:13.377Z,19.83
2023-01-30T05:12:40.971Z,16.10
2023-01-30T05:15:09.484Z,16.30
2023-01-30T05:17:37.587Z,18.03
2023-01-30T05:20:08.458Z,19.67
2023-01-30T05:22:36.152Z,17.87
2023-01-30T05:25:03.715Z,41.30
2023-01-30T05:27:31.395Z,19.40
2023-01-30T05:29:58.967Z,28.07
2023-01-30T05:32:27.485Z,29.50
2023-01-30T05:34:55.127Z,19.07
2023-01-30T05:37:24.340Z,17.97
2023-01-30T05:39:52.021Z,18.90
2023-01-30T05:42:19.528Z,17.90
2023-01-30T05:44:51.734Z,15.67
2023-01-30T05:47:19.306Z,18.73
2023-01-30T05:49:46.888Z,14.50
2023-01-30T05:52:14.687Z,17.53
2023-01-30T05:54:43.820Z,13.50
2023-01-30T05:57:11.623Z,18.40
2023-01-30T05:59:39.340Z,17.20
2023-01-30T06:02:06.903Z,25.93
2023-01-30T06:04:35.450Z,15.07
2023-01-30T06:07:03.135Z,14.03
2023-01-30T06:09:30.705Z,17.40
2023-01-30T06:12:04.804Z,13.50
2023-01-30T06:14:32.449Z,14.83
2023-01-30T06:17:00.188Z,15.70
2023-01-30T06:19:27.761Z,16.20
2023-01-30T06:21:55.306Z,17.53
2023-01-30T06:24:23.759Z,16.20
2023-01-30T06:26:51.654Z,18.67
2023-01-30T06:29:20.804Z,16.73
2023-01-30T06:31:48.464Z,15.07
2023-01-30T06:34:16.139Z,15.30
2023-01-30T06:36:45.870Z,14.70
2023-01-30T06:39:13.493Z,15.73
2023-01-30T06:41:41.095Z,16.67
2023-01-30T06:44:09.808Z,16.23
2023-01-30T06:46:38.706Z,16.57
2023-01-30T06:49:06.376Z,17.17
2023-01-30T06:51:34.049Z,13.67
2023-01-30T06:54:01.871Z,15.53
2023-01-30T06:56:29.423Z,16.63
2023-01-30T06:58:58.543Z,10.60
2023-01-30T07:01:30.210Z,13.67
2023-01-30T07:04:00.660Z,12.23
2023-01-30T07:06:28.280Z,14.40
2023-01-30T07:09:00.739Z,13.80
2023-01-30T07:11:28.757Z,12.80
2023-01-30T07:13:56.577Z,12.90
2023-01-30T07:16:30.047Z,12.80
2023-01-30T07:19:02.071Z,14.97
2023-01-30T07:21:29.779Z,11.80
2023-01-30T07:23:57.851Z,11.40
2023-01-30T07:26:25.759Z,16.93
2023-01-30T07:28:53.428Z,15.30
2023-01-30T07:31:21.024Z,10.83
2023-01-30T07:33:48.648Z,15.63
2023-01-30T07:36:22.591Z,13.77
2023-01-30T07:38:50.307Z,14.10
2023-01-30T07:41:17.959Z,13.70
2023-01-30T07:43:45.549Z,11.27
2023-01-30T07:46:13.307Z,15.40
2023-01-30T07:48:40.973Z,11.67
2023-01-30T07:51:08.736Z,12.90
2023-01-30T07:53:37.929Z,12.77
2023-01-30T07:56:08.227Z,12.83
2023-01-30T07:58:36.125Z,13.77
2023-01-30T08:01:04.424Z,12.33
2023-01-30T08:03:32.152Z,10.60
2023-01-30T08:05:59.710Z,14.30
2023-01-30T08:08:27.347Z,11.70
2023-01-30T08:10:56.265Z,9.40
2023-01-30T08:13:23.913Z,14.20
2023-01-30T08:15:56.315Z,12.13
2023-01-30T08:18:24.313Z,12.43
2023-01-30T08:20:53.260Z,12.50
2023-01-30T08:23:21.270Z,12.40
2023-01-30T08:25:48.993Z,11.17
2023-01-30T08:28:17.967Z,11.67
2023-01-30T08:30:45.642Z,11.07
2023-01-30T08:33:14.405Z,9.17
2023-01-30T08:35:42.287Z,13.87
2023-01-30T08:38:10.664Z,9.07
2023-01-30T08:40:38.592Z,11.97
2023-01-30T08:43:07.046Z,13.10
2023-01-30T08:45:37.668Z,14.50
2023-01-30T08:48:07.409Z,7.33
2023-01-30T08:50:35.334Z,10.87
2023-01-30T08:53:07.234Z,10.63
2023-01-30T08:55:34.936Z,10.20
2023-01-30T08:58:02.581Z,10.53
2023-01-30T09:00:30.528Z,14.73
2023-01-30T09:03:00.532Z,9.47
2023-01-30T09:05:28.350Z,7.60
2023-01-30T09:07:56.114Z,7.00
2023-01-30T09:10:24.482Z,9.37
2023-01-30T09:12:52.136Z,9.10
2023-01-30T09:15:19.737Z,8.50
2023-01-30T09:17:47.404Z,8.43
2023-01-30T09:20:19.011Z,6.87
2023-01-30T09:22:46.869Z,9.17
2023-01-30T09:25:14.731Z,6.20
2023-01-30T09:27:44.430Z,5.87
2023-01-30T09:30:13.301Z,7.20
2023-01-30T09:32:40.943Z,4.87
2023-01-30T09:35:09.302Z,6.03
2023-01-30T09:37:38.308Z,6.90
2023-01-30T09:40:07.404Z,6.07
2023-01-30T09:42:51.685Z,5.13
2023-01-30T09:45:42.764Z,5.87
2023-01-30T09:48:17.998Z,4.17
2023-01-30T09:51:16.343Z,3.60
2023-01-30T09:54:00.990Z,5.63
2023-01-30T09:56:29.322Z,5.20
2023-01-30T09:58:59.489Z,3.83
2023-01-30T10:01:35.251Z,5.93
2023-01-30T10:04:12.100Z,3.87
2023-01-30T10:06:52.124Z,3.30
2023-01-30T10:09:34.684Z,4.13
2023-01-30T10:12:22.184Z,2.90
2023-01-30T10:15:15.594Z,2.43
2023-01-30T10:17:58.841Z,3.17
2023-01-30T10:20:41.974Z,3.70
2023-01-30T10:23:34.840Z,2.47
2023-01-30T10:26:10.437Z,3.33
2023-01-30T10:28:43.109Z,2.60
2023-01-30T10:31:16.002Z,1.97
2023-01-30T10:33:58.974Z,2.20
2023-01-30T10:36:33.877Z,1.90
2023-01-30T10:39:05.331Z,1.83
2023-01-30T10:41:37.786Z,1.93
2023-01-30T10:44:11.107Z,2.00
2023-01-30T10:46:55.344Z,2.13
2023-01-30T10:49:37.793Z,1.67
2023-01-30T10:52:20.031Z,2.00
2023-01-30T10:54:56.471Z,1.70
2023-01-30T10:57:37.608Z,1.77
2023-01-30T11:00:14.230Z,1.90
2023-01-30T11:02:54.221Z,2.03
2023-01-30T11:05:26.507Z,1.70
2023-01-30T11:07:54.413Z,2.90
2023-01-30T11:10:23.903Z,2.00
2023-01-30T11:12:56.930Z,1.73
2023-01-30T11:15:25.810Z,1.93
2023-01-30T11:18:33.446Z,1.50
2023-01-30T11:21:04.067Z,2.43
2023-01-30T11:23:35.527Z,1.53
2023-01-30T11:26:11.604Z,1.30
2023-01-30T11:28:44.846Z,1.93
2023-01-30T11:31:31.554Z,1.60
2023-01-30T11:34:16.006Z,1.77
2023-01-30T11:36:47.049Z,1.40
2023-01-30T11:39:29.075Z,1.50
2023-01-30T11:42:04.543Z,1.63
2023-01-30T11:44:43.234Z,1.53
2023-01-30T11:47:18.456Z,1.37
2023-01-30T11:50:01.928Z,4.50
2023-01-30T11:52:43.653Z,1.27
2023-01-30T11:55:16.033Z,1.40
2023-01-30T11:57:46.463Z,1.30
2023-01-30T12:00:20.635Z,1.77
2023-01-30T12:02:50.171Z,1.40
2023-01-30T12:05:26.390Z,1.37
2023-01-30T12:07:54.304Z,1.50
2023-01-30T12:10:32.037Z,1.87
2023-01-30T12:13:03.548Z,1.67
2023-01-30T12:15:34.124Z,1.50
2023-01-30T12:18:10.298Z,1.50
2023-01-30T12:20:50.379Z,1.37
2023-01-30T12:23:22.349Z,1.70
2023-01-30T12:25:59.509Z,1.90
2023-01-30T12:28:35.932Z,1.37
2023-01-30T12:31:12.755Z,3.97
2023-01-30T12:33:40.507Z,1.50
2023-01-30T12:36:22.815Z,2.13
2023-01-30T12:38:58.136Z,1.60
2023-01-30T12:41:40.428Z,1.57
2023-01-30T12:44:30.878Z,2.30
2023-01-30T12:47:16.199Z,1.80
2023-01-30T12:49:56.770Z,1.40
2023-01-30T12:52:42.340Z,7.70
2023-01-30T12:55:22.326Z,2.23
2023-01-30T12:57:55.461Z,1.77
2023-01-30T13:00:38.039Z,1.40
2023-01-30T13:03:23.532Z,1.40
2023-01-30T13:05:56.850Z,1.47
2023-01-30T13:08:38.472Z,1.50
2023-01-30T13:11:16.734Z,7.33
2023-01-30T13:13:52.627Z,1.53
2023-01-30T13:16:27.294Z,1.80
2023-01-30T13:19:01.054Z,1.40
2023-01-30T13:21:36.137Z,3.23
2023-01-30T13:24:15.436Z,1.10
2023-01-30T13:26:45.119Z,1.40
2023-01-30T13:29:17.184Z,1.57
2023-01-30T13:31:53.239Z,1.70
2023-01-30T13:34:29.343Z,1.67
2023-01-30T13:37:03.937Z,1.93
2023-01-30T13:39:42.282Z,1.10
2023-01-30T13:42:18.447Z,1.67
2023-01-30T13:44:49.074Z,1.40
2023-01-30T13:47:33.467Z,5.47
2023-01-30T13:50:23.038Z,6.43
2023-01-30T13:52:57.502Z,6.50
2023-01-30T13:55:34.527Z,1.67
2023-01-30T13:58:11.132Z,1.93
2023-01-30T14:00:38.830Z,3.13
2023-01-30T14:03:17.819Z,2.40
2023-01-30T14:06:12.921Z,5.07
2023-01-30T14:08:49.820Z,1.87
2023-01-30T14:11:34.596Z,2.03
2023-01-30T14:14:07.243Z,6.83
2023-01-30T14:16:46.411Z,6.87
2023-01-30T14:19:40.849Z,1.63
2023-01-30T14:22:26.434Z,2.80
2023-01-30T14:25:41.426Z,3.13
2023-01-30T14:28:49.382Z,5.40
2023-01-30T14:31:48.674Z,3.20
2023-01-30T14:34:47.993Z,1.83
2023-01-30T14:37:31.075Z,4.50
2023-01-30T14:40:02.468Z,1.47
2023-01-30T14:42:32.266Z,2.70
2023-01-30T14:45:04.861Z,3.63
2023-01-30T14:47:42.519Z,2.80
2023-01-30T14:50:27.530Z,1.67
2023-01-30T14:52:57.716Z,1.20
2023-01-30T14:55:29.405Z,4.67
2023-01-30T14:58:01.293Z,2.00
2023-01-30T15:00:32.311Z,3.60
2023-01-30T15:03:03.068Z,4.83
2023-01-30T15:05:33.691Z,2.83
2023-01-30T15:08:10.576Z,1.80
2023-01-30T15:11:05.446Z,2.47
2023-01-30T15:14:07.484Z,1.73
2023-01-30T15:16:53.069Z,3.00
2023-01-30T15:19:44.911Z,3.07
2023-01-30T15:22:21.945Z,3.03
2023-01-30T15:25:25.332Z,6.20
2023-01-30T15:28:03.438Z,1.67
2023-01-30T15:30:46.244Z,2.67
2023-01-30T15:33:29.468Z,3.90
2023-01-30T15:35:58.005Z,1.67
2023-01-30T15:38:29.258Z,1.47
2023-01-30T15:41:01.700Z,7.40
2023-01-30T15:44:02.346Z,4.23
2023-01-30T15:46:42.477Z,5.50
2023-01-30T15:49:32.103Z,7.33
2023-01-30T15:52:03.815Z,5.93
2023-01-30T15:54:32.017Z,6.40
2023-01-30T15:57:02.838Z,7.10
2023-01-30T15:59:34.994Z,3.43
2023-01-30T16:02:08.586Z,7.60
2023-01-30T16:04:36.341Z,10.10
2023-01-30T16:07:15.644Z,7.50
2023-01-30T16:09:49.593Z,3.37
2023-01-30T16:12:28.298Z,5.37
2023-01-30T16:15:05.656Z,9.23
2023-01-30T16:17:45.490Z,8.13
2023-01-30T16:20:16.563Z,3.57
2023-01-30T16:22:48.052Z,3.30
2023-01-30T16:25:23.266Z,5.67
2023-01-30T16:27:53.640Z,10.80
2023-01-30T16:30:24.598Z,5.40
2023-01-30T16:32:54.735Z,3.70
2023-01-30T16:35:34.269Z,4.33
2023-01-30T16:38:04.002Z,10.20
2023-01-30T16:40:43.425Z,4.50
2023-01-30T16:43:21.625Z,4.03
2023-01-30T16:46:20.144Z,6.87
2023-01-30T16:48:49.348Z,5.53
2023-01-30T16:51:23.714Z,5.33
2023-01-30T16:53:56.815Z,4.53
2023-01-30T16:56:24.814Z,12.50
2023-01-30T16:59:00.502Z,10.40
2023-01-30T17:01:40.970Z,9.03
2023-01-30T17:04:19.762Z,7.60
2023-01-30T17:07:04.306Z,3.83
2023-01-30T17:09:56.601Z,4.37
2023-01-30T17:12:53.244Z,3.73
2023-01-30T17:15:36.573Z,7.07
2023-01-30T17:18:04.454Z,5.70
2023-01-30T17:20:43.093Z,10.43
2023-01-30T17:23:18.122Z,3.00
2023-01-30T17:25:49.549Z,5.70
2023-01-30T17:28:24.376Z,4.90
2023-01-30T17:30:57.473Z,6.37
2023-01-30T17:33:25.836Z,16.87
2023-01-30T17:35:53.481Z,8.93
2023-01-30T17:38:21.281Z,5.30
2023-01-30T17:40:52.329Z,9.30
2023-01-30T17:43:19.953Z,6.70
2023-01-30T17:45:48.119Z,5.73
2023-01-30T17:48:17.050Z,4.43
2023-01-30T17:50:44.675Z,4.20
2023-01-30T17:53:12.264Z,3.13
2023-01-30T17:55:40.556Z,4.10
2023-01-30T17:58:08.264Z,9.80
2023-01-30T18:00:35.992Z,20.37
2023-01-30T18:03:03.579Z,7.03
2023-01-30T18:05:32.551Z,11.93
2023-01-30T18:08:00.268Z,5.33
2023-01-30T18:10:28.306Z,3.80
2023-01-30T18:12:55.945Z,6.50
2023-01-30T18:15:25.410Z,11.63
2023-01-30T18:17:55.441Z,5.43
2023-01-30T18:20:40.190Z,8.87
2023-01-30T18:23:12.643Z,6.07
2023-01-30T18:26:01.499Z,8.10
2023-01-30T18:28:29.252Z,12.70
2023-01-30T18:30:57.751Z,4.90
2023-01-30T18:33:26.036Z,5.40
2023-01-30T18:35:53.649Z,7.03
2023-01-30T18:38:22.601Z,8.60
2023-01-30T18:40:50.351Z,15.57
2023-01-30T18:43:17.917Z,7.83
2023-01-30T18:45:45.480Z,7.70
2023-01-30T18:48:13.009Z,5.20
2023-01-30T18:50:40.661Z,7.60
2023-01-30T18:53:08.454Z,7.03
2023-01-30T18:55:37.422Z,6.20
2023-01-30T18:58:04.983Z,8.97
2023-01-30T19:00:32.604Z,8.83
2023-01-30T19:03:00.233Z,4.57
2023-01-30T19:05:27.843Z,6.90
2023-01-30T19:07:55.592Z,10.67
2023-01-30T19:10:23.177Z,10.90
2023-01-30T19:13:09.909Z,12.97
2023-01-30T19:15:40.109Z,10.40
2023-01-30T19:18:07.916Z,11.97
2023-01-30T19:20:36.206Z,9.47
2023-01-30T19:23:04.234Z,5.67
2023-01-30T19:25:31.998Z,5.67
2023-01-30T19:28:00.961Z,5.03
2023-01-30T19:30:29.495Z,3.50
2023-01-30T19:32:59.296Z,10.03
2023-01-30T19:35:27.387Z,7.97
2023-01-30T19:38:00.193Z,12.57
2023-01-30T19:40:27.907Z,12.33
2023-01-30T19:42:59.634Z,4.83
2023-01-30T19:45:34.575Z,7.90
2023-01-30T19:48:02.228Z,10.13
2023-01-30T19:50:29.842Z,8.10
2023-01-30T19:52:57.571Z,13.80
2023-01-30T19:55:25.927Z,15.10
2023-01-30T19:57:53.904Z,10.67
2023-01-30T20:00:22.616Z,7.33
2023-01-30T20:02:52.460Z,8.83
2023-01-30T20:05:21.002Z,17.50
2023-01-30T20:07:49.776Z,3.47
2023-01-30T20:10:18.881Z,6.23
2023-01-30T20:12:48.022Z,10.20
2023-01-30T20:15:16.983Z,10.67
2023-01-30T20:17:44.811Z,12.90
2023-01-30T20:20:14.052Z,11.50
2023-01-30T20:22:42.719Z,16.93
2023-01-30T20:25:11.285Z,33.40
2023-01-30T20:27:39.380Z,11.87
2023-01-30T20:30:08.604Z,7.47
2023-01-30T20:32:36.642Z,10.40
2023-01-30T20:35:04.378Z,8.77
2023-01-30T20:37:33.590Z,8.17
2023-01-30T20:40:01.287Z,8.20
2023-01-30T20:42:29.160Z,11.20
2023-01-30T20:44:56.847Z,13.40
2023-01-30T20:47:24.482Z,12.40
2023-01-30T20:49:52.342Z,8.10
2023-01-30T20:52:20.560Z,9.03
2023-01-30T20:54:49.553Z,4.80
2023-01-30T20:57:17.840Z,5.00
2023-01-30T20:59:46.691Z,7.77
2023-01-30T21:02:14.498Z,11.43
2023-01-30T21:04:43.824Z,10.77
2023-01-30T21:07:11.435Z,8.60
2023-01-30T21:09:39.510Z,9.07
2023-01-30T21:12:09.070Z,11.23
2023-01-30T21:14:37.008Z,7.03
2023-01-30T21:17:05.036Z,9.43
2023-01-30T21:19:32.726Z,11.33
2023-01-30T21:22:07.412Z,5.30
2023-01-30T21:24:35.257Z,4.10
2023-01-30T21:27:02.876Z,8.13
2023-01-30T21:29:32.587Z,6.30
2023-01-30T21:32:00.295Z,12.00
2023-01-30T21:34:27.967Z,14.50
2023-01-30T21:37:13.646Z,23.17
2023-01-30T21:39:59.075Z,11.60
2023-01-30T21:42:44.831Z,11.57
2023-01-30T21:45:15.356Z,5.03
2023-01-30T21:47:42.990Z,11.33
2023-01-30T21:50:11.862Z,9.80
2023-01-30T21:52:40.069Z,6.83
2023-01-30T21:55:08.509Z,4.90
2023-01-30T21:57:36.585Z,7.33
2023-01-30T22:00:05.183Z,7.53
2023-01-30T22:02:34.421Z,11.00
2023-01-30T22:05:02.115Z,7.47
2023-01-30T22:07:29.895Z,9.53
2023-01-30T22:09:58.112Z,10.20
2023-01-30T22:12:26.483Z,8.07
2023-01-30T22:14:54.810Z,4.27
2023-01-30T22:17:22.508Z,5.87
2023-01-30T22:19:51.498Z,4.70
2023-01-30T22:22:20.583Z,9.63
2023-01-30T22:24:48.320Z,11.80
2023-01-30T22:27:17.080Z,7.10
2023-01-30T22:29:47.014Z,3.83
2023-01-30T22:32:14.577Z,2.93
2023-01-30T22:34:42.258Z,16.90
2023-01-30T22:37:11.209Z,7.57
2023-01-30T22:39:38.832Z,3.43
2023-01-30T22:42:08.615Z,7.30
2023-01-30T22:44:37.395Z,3.03
2023-01-30T22:47:05.168Z,5.73
2023-01-30T22:49:32.828Z,4.40
2023-01-30T22:52:01.746Z,10.60
2023-01-30T22:54:31.026Z,4.83
2023-01-30T22:56:58.839Z,4.57
2023-01-30T22:59:26.464Z,10.03
2023-01-30T23:01:54.552Z,12.90
2023-01-30T23:04:24.032Z,12.83
2023-01-30T23:06:52.735Z,2.40
2023-01-30T23:09:22.108Z,7.67
2023-01-30T23:12:06.685Z,7.27
2023-01-30T23:14:34.804Z,4.77
2023-01-30T23:17:23.852Z,8.13
2023-01-30T23:19:50.527Z,7.37
2023-01-30T23:22:18.618Z,13.93
2023-01-30T23:24:48.559Z,10.70
2023-01-30T23:27:17.762Z,9.40
2023-01-30T23:29:45.401Z,9.63
2023-01-30T23:32:13.019Z,3.67
2023-01-30T23:34:40.585Z,5.83
2023-01-30T23:37:08.163Z,3.80
2023-01-30T23:39:35.761Z,7.40
2023-01-30T23:42:03.832Z,9.03
2023-01-30T23:44:32.740Z,9.03
2023-01-30T23:47:00.486Z,6.53
2023-01-30T23:49:30.593Z,3.23
2023-01-30T23:51:58.177Z,6.90
2023-01-30T23:54:25.908Z,4.30
2023-01-30T23:56:55.495Z,5.37
2023-01-30T23:59:23.081Z,4.10
